createdAt,value
2023-04-03T00:02:25.377Z,103024.47
2023-04-03T00:04:53.265Z,103019.19
2023-04-03T00:07:21.295Z,103024.47
2023-04-03T00:09:49.186Z,103020.06
2023-04-03T00:12:18.564Z,103013.88
2023-04-03T00:14:46.407Z,103022.69
2023-04-03T00:17:15.391Z,103028.03
2023-04-03T00:19:43.257Z,103023.59
2023-04-03T00:22:11.152Z,103020.94
2023-04-03T00:24:39.064Z,103022.72
2023-04-03T00:27:06.954Z,103017.41
2023-04-03T00:29:36.197Z,103022.72
2023-04-03T00:32:04.136Z,103020.94
2023-04-03T00:34:32.148Z,103013.00
2023-04-03T00:37:00.182Z,102971.47
2023-04-03T00:39:28.294Z,103008.59
2023-04-03T00:41:56.383Z,103008.56
2023-04-03T00:44:24.716Z,103009.44
2023-04-03T00:46:53.933Z,103011.22
2023-04-03T00:49:21.809Z,103010.34
2023-04-03T00:51:49.675Z,103008.56
2023-04-03T00:54:17.752Z,102998.84
2023-04-03T00:56:45.674Z,103007.69
2023-04-03T00:59:14.616Z,103006.78
2023-04-03T01:01:42.474Z,102997.94
2023-04-03T01:04:30.200Z,103011.22
2023-04-03T01:06:58.592Z,103011.19
2023-04-03T01:09:26.424Z,103011.19
2023-04-03T01:11:54.304Z,103009.41
2023-04-03T01:14:22.241Z,103001.47
2023-04-03T01:16:55.109Z,103004.94
2023-04-03T01:19:23.062Z,103003.19
2023-04-03T01:22:05.880Z,103008.47
2023-04-03T01:24:35.205Z,103006.69
2023-04-03T01:27:03.693Z,102997.84
2023-04-03T01:29:31.563Z,102998.75
2023-04-03T01:32:01.275Z,102999.63
2023-04-03T01:34:29.276Z,102996.06
2023-04-03T01:36:57.331Z,102995.16
2023-04-03T01:39:25.255Z,103001.31
2023-04-03T01:41:53.139Z,102989.81
2023-04-03T01:44:21.008Z,102991.59
2023-04-03T01:46:48.888Z,102988.94
2023-04-03T01:49:18.232Z,102991.59
2023-04-03T01:51:46.139Z,102987.19
2023-04-03T01:54:14.194Z,102984.53
2023-04-03T01:56:42.162Z,102912.03
2023-04-03T01:59:10.190Z,102983.66
2023-04-03T02:01:38.166Z,102983.66
2023-04-03T02:04:06.590Z,102990.69
2023-04-03T02:06:35.979Z,102987.16
2023-04-03T02:09:03.915Z,102982.75
2023-04-03T02:11:31.968Z,102987.19
2023-04-03T02:13:59.859Z,102981.00
2023-04-03T02:16:27.841Z,102977.44
2023-04-03T02:18:55.787Z,102985.41
2023-04-03T02:21:23.695Z,102980.09
2023-04-03T02:23:52.952Z,102978.34
2023-04-03T02:26:20.833Z,102974.81
2023-04-03T02:28:48.682Z,102979.19
2023-04-03T02:31:16.609Z,102973.88
2023-04-03T02:33:44.567Z,102977.41
2023-04-03T02:36:12.459Z,102980.91
2023-04-03T02:38:40.365Z,102974.75
2023-04-03T02:41:10.474Z,102970.31
2023-04-03T02:43:38.361Z,102972.94
2023-04-03T02:46:06.455Z,102967.66
2023-04-03T02:48:34.513Z,102965.88
2023-04-03T02:51:03.140Z,102977.31
2023-04-03T02:53:31.015Z,102978.19
2023-04-03T02:55:58.901Z,102979.06
2023-04-03T02:58:28.152Z,102978.16
2023-04-03T03:00:56.002Z,102972.00
2023-04-03T03:03:24.056Z,102964.91
2023-04-03T03:05:51.920Z,102969.31
2023-04-03T03:08:21.290Z,102956.97
2023-04-03T03:10:49.183Z,102960.47
2023-04-03T03:13:17.044Z,102960.44
2023-04-03T03:15:46.315Z,102952.47
2023-04-03T03:18:14.198Z,102952.44
2023-04-03T03:20:42.066Z,102955.09
2023-04-03T03:23:09.966Z,102956.84
2023-04-03T03:25:40.131Z,102948.00
2023-04-03T03:28:08.075Z,102938.31
2023-04-03T03:30:36.174Z,102933.91
2023-04-03T03:33:05.463Z,102931.25
2023-04-03T03:35:33.460Z,102872.88
2023-04-03T03:38:01.565Z,102933.88
2023-04-03T03:40:29.432Z,102933.84
2023-04-03T03:42:57.267Z,102923.28
2023-04-03T03:45:25.624Z,102924.13
2023-04-03T03:47:53.489Z,102924.13
2023-04-03T03:50:22.748Z,102923.25
2023-04-03T03:52:50.745Z,102925.03
2023-04-03T03:55:18.790Z,102916.22
2023-04-03T03:57:46.724Z,102918.00
2023-04-03T04:00:15.476Z,102907.38
2023-04-03T04:02:43.459Z,102916.22
2023-04-03T04:05:11.416Z,102915.31
2023-04-03T04:07:40.664Z,102922.38
2023-04-03T04:10:09.653Z,102917.97
2023-04-03T04:12:37.649Z,102913.56
2023-04-03T04:15:06.212Z,102918.88
2023-04-03T04:17:35.635Z,102918.00
2023-04-03T04:20:03.765Z,102918.88
2023-04-03T04:22:31.666Z,102922.41
2023-04-03T04:25:00.867Z,102917.13
2023-04-03T04:27:28.801Z,102903.88
2023-04-03T04:29:58.795Z,102905.63
2023-04-03T04:32:27.256Z,102912.69
2023-04-03T04:34:55.308Z,102896.81
2023-04-03T04:37:23.239Z,102894.16
2023-04-03T04:39:51.107Z,102890.63
2023-04-03T04:42:20.401Z,102886.22
2023-04-03T04:44:48.262Z,102886.22
2023-04-03T04:47:16.245Z,102888.03
2023-04-03T04:49:44.152Z,102834.16
2023-04-03T04:52:11.998Z,102885.44
2023-04-03T04:54:39.874Z,102876.69
2023-04-03T04:57:07.823Z,102881.09
2023-04-03T04:59:37.081Z,102871.41
2023-04-03T05:02:05.007Z,102876.72
2023-04-03T05:04:34.301Z,102877.59
2023-04-03T05:07:02.246Z,102878.47
2023-04-03T05:09:30.136Z,102881.13
2023-04-03T05:11:58.071Z,102881.13
2023-04-03T05:14:26.159Z,102885.53
2023-04-03T05:16:55.583Z,102880.25
2023-04-03T05:19:23.458Z,102886.41
2023-04-03T05:21:51.334Z,102888.19
2023-04-03T05:24:20.296Z,102889.97
2023-04-03T05:26:48.200Z,102887.34
2023-04-03T05:29:16.155Z,102888.25
2023-04-03T05:31:44.103Z,102889.16
2023-04-03T05:34:13.546Z,102890.91
2023-04-03T05:36:41.416Z,102885.63
2023-04-03T05:39:09.359Z,102890.97
2023-04-03T05:41:37.246Z,102892.75
2023-04-03T05:44:05.153Z,102897.16
2023-04-03T05:46:33.146Z,102891.91
2023-04-03T05:49:01.306Z,102886.59
2023-04-03T05:51:35.821Z,102902.50
2023-04-03T05:54:07.122Z,102890.16
2023-04-03T05:56:35.031Z,102898.09
2023-04-03T05:59:02.994Z,102899.84
2023-04-03T06:01:30.918Z,102904.28
2023-04-03T06:04:00.072Z,102900.75
2023-04-03T06:06:28.166Z,102911.34
2023-04-03T06:08:57.650Z,102914.88
2023-04-03T06:11:25.536Z,102916.63
2023-04-03T06:13:53.443Z,102912.22
2023-04-03T06:16:22.126Z,102919.31
2023-04-03T06:18:50.257Z,102917.53
2023-04-03T06:21:18.147Z,102914.03
2023-04-03T06:23:46.091Z,102909.59
2023-04-03T06:26:15.940Z,102915.81
2023-04-03T06:28:43.843Z,102922.00
2023-04-03T06:31:11.847Z,102914.03
2023-04-03T06:33:39.827Z,102918.44
2023-04-03T06:36:08.804Z,102914.88
2023-04-03T06:38:37.337Z,102918.44
2023-04-03T06:41:05.336Z,102933.44
2023-04-03T06:43:34.987Z,102931.72
2023-04-03T06:46:03.191Z,102926.38
2023-04-03T06:48:31.133Z,102931.66
2023-04-03T06:50:59.290Z,102938.75
2023-04-03T06:53:27.537Z,102941.38
2023-04-03T06:55:55.500Z,102940.53
2023-04-03T06:58:25.997Z,102941.41
2023-04-03T07:00:55.729Z,102949.38
2023-04-03T07:03:26.243Z,102930.84
2023-04-03T07:05:54.472Z,102947.63
2023-04-03T07:08:23.987Z,102941.41
2023-04-03T07:10:52.356Z,102944.94
2023-04-03T07:13:20.649Z,102944.94
2023-04-03T07:15:49.892Z,102944.03
2023-04-03T07:18:19.429Z,102946.69
2023-04-03T07:20:47.542Z,102955.53
2023-04-03T07:23:16.132Z,102950.25
2023-04-03T07:25:45.495Z,102953.78
2023-04-03T07:28:14.788Z,102957.28
2023-04-03T07:30:47.092Z,102946.69
2023-04-03T07:33:15.767Z,102966.13
2023-04-03T07:35:45.865Z,102969.63
2023-04-03T07:38:13.873Z,102965.22
2023-04-03T07:40:42.288Z,102970.53
2023-04-03T07:43:10.310Z,102968.75
2023-04-03T07:45:38.382Z,102974.94
2023-04-03T07:48:07.317Z,102968.72
2023-04-03T07:50:35.700Z,102972.28
2023-04-03T07:53:05.045Z,102965.19
2023-04-03T07:55:35.118Z,102971.34
2023-04-03T07:58:03.211Z,102971.34
2023-04-03T08:00:31.270Z,102960.72
2023-04-03T08:02:59.283Z,102966.91
2023-04-03T08:05:27.439Z,102963.31
2023-04-03T08:07:55.358Z,102965.09
2023-04-03T08:10:24.650Z,102965.06
2023-04-03T08:12:52.713Z,102973.88
2023-04-03T08:15:21.524Z,102972.13
2023-04-03T08:17:49.717Z,102975.69
2023-04-03T08:20:18.444Z,102980.16
2023-04-03T08:22:46.472Z,102977.53
2023-04-03T08:25:14.664Z,102973.16
2023-04-03T08:27:43.928Z,102974.03
2023-04-03T08:30:12.771Z,102963.44
2023-04-03T08:32:42.904Z,102963.44
2023-04-03T08:35:11.709Z,102962.56
2023-04-03T08:37:39.841Z,102970.50
2023-04-03T08:40:08.860Z,102974.03
2023-04-03T08:42:42.883Z,102967.78
2023-04-03T08:45:13.096Z,102975.69
2023-04-03T08:47:42.840Z,102969.41
2023-04-03T08:50:14.147Z,102962.31
2023-04-03T08:52:44.085Z,102954.34
2023-04-03T08:55:19.879Z,102970.19
2023-04-03T08:57:48.186Z,102956.81
2023-04-03T09:00:21.463Z,102966.50
2023-04-03T09:02:50.111Z,102961.09
2023-04-03T09:05:19.005Z,102956.63
2023-04-03T09:07:50.088Z,102952.97
2023-04-03T09:10:20.639Z,102952.03
2023-04-03T09:12:50.291Z,102947.50
2023-04-03T09:15:35.404Z,102938.63
2023-04-03T09:18:08.026Z,102937.63
2023-04-03T09:20:42.664Z,102928.72
2023-04-03T09:23:20.883Z,102938.34
2023-04-03T09:25:49.187Z,102958.53
2023-04-03T09:28:19.796Z,102947.81
2023-04-03T09:30:49.100Z,102945.94
2023-04-03T09:33:17.591Z,102942.38
2023-04-03T09:35:49.045Z,102942.31
2023-04-03T09:38:19.359Z,102944.84
2023-04-03T09:40:47.591Z,102939.47
2023-04-03T09:43:30.186Z,102941.16
2023-04-03T09:46:20.980Z,102936.63
2023-04-03T09:49:05.169Z,102916.16
2023-04-03T09:51:36.819Z,102925.81
2023-04-03T09:54:27.216Z,102933.72
2023-04-03T09:56:55.269Z,102932.75
2023-04-03T09:59:23.189Z,102916.72
2023-04-03T10:02:00.893Z,102909.63
2023-04-03T10:04:38.761Z,102925.44
2023-04-03T10:07:06.805Z,102919.28
2023-04-03T10:09:35.025Z,102918.22
2023-04-03T10:12:05.708Z,102912.81
2023-04-03T10:14:33.976Z,102923.22
2023-04-03T10:17:07.962Z,102922.19
2023-04-03T10:19:38.801Z,102916.72
2023-04-03T10:22:09.567Z,102912.13
2023-04-03T10:24:41.065Z,102907.53
2023-04-03T10:27:10.727Z,102908.25
2023-04-03T10:29:42.040Z,102911.69
2023-04-03T10:32:29.929Z,102911.47
2023-04-03T10:35:05.110Z,102909.59
2023-04-03T10:37:38.450Z,102899.72
2023-04-03T10:40:12.736Z,102888.06
2023-04-03T10:42:43.039Z,102900.16
2023-04-03T10:45:21.242Z,102899.09
2023-04-03T10:47:55.957Z,102891.06
2023-04-03T10:50:34.281Z,102897.16
2023-04-03T10:53:05.446Z,102893.59
2023-04-03T10:55:37.894Z,102891.53
2023-04-03T10:58:06.584Z,102885.25
2023-04-03T11:00:38.960Z,102883.19
2023-04-03T11:03:11.298Z,102887.38
2023-04-03T11:05:41.678Z,102890.69
2023-04-03T11:08:13.633Z,102876.31
2023-04-03T11:10:43.424Z,102884.97
2023-04-03T11:13:14.860Z,102879.03
2023-04-03T11:15:43.416Z,102847.84
2023-04-03T11:18:14.911Z,102889.13
2023-04-03T11:20:44.313Z,102866.53
2023-04-03T11:23:16.332Z,102871.53
2023-04-03T11:25:45.705Z,102887.97
2023-04-03T11:28:14.689Z,102861.78
2023-04-03T11:30:53.560Z,102874.28
2023-04-03T11:33:35.025Z,102856.88
2023-04-03T11:36:12.536Z,102875.69
2023-04-03T11:38:48.096Z,102865.34
2023-04-03T11:41:16.905Z,102879.09
2023-04-03T11:43:47.957Z,102858.72
2023-04-03T11:46:17.424Z,102870.19
2023-04-03T11:48:52.321Z,102858.44
2023-04-03T11:51:43.777Z,102841.00
2023-04-03T11:54:51.763Z,102849.06
2023-04-03T11:57:47.809Z,102846.38
2023-04-03T12:00:53.769Z,102846.94
2023-04-03T12:04:03.964Z,102839.84
2023-04-03T12:07:14.802Z,102845.19
2023-04-03T12:10:03.548Z,102833.16
2023-04-03T12:12:39.643Z,102831.84
2023-04-03T12:15:55.330Z,102833.66
2023-04-03T12:19:04.075Z,102830.22
2023-04-03T12:22:08.562Z,102824.50
2023-04-03T12:24:36.906Z,102819.22
2023-04-03T12:27:08.098Z,102802.75
2023-04-03T12:29:41.355Z,102791.28
2023-04-03T12:32:15.192Z,102797.81
2023-04-03T12:34:53.022Z,102802.78
2023-04-03T12:37:32.148Z,102816.28
2023-04-03T12:40:06.965Z,102786.34
2023-04-03T12:42:55.425Z,102801.97
2023-04-03T12:45:23.983Z,102788.06
2023-04-03T12:47:53.258Z,102782.06
2023-04-03T12:50:25.487Z,102774.25
2023-04-03T12:53:02.706Z,102777.84
2023-04-03T12:55:30.772Z,102767.50
2023-04-03T12:57:59.082Z,102775.41
2023-04-03T13:00:35.386Z,102760.25
2023-04-03T13:03:04.401Z,102761.34
2023-04-03T13:05:34.573Z,102753.97
2023-04-03T13:08:06.807Z,102762.25
2023-04-03T13:10:34.965Z,102756.75
2023-04-03T13:13:12.002Z,102756.50
2023-04-03T13:15:44.537Z,102751.34
2023-04-03T13:18:27.789Z,102755.63
2023-04-03T13:20:58.689Z,102755.09
2023-04-03T13:23:28.325Z,102749.13
2023-04-03T13:26:03.750Z,102731.41
2023-04-03T13:28:32.077Z,102741.94
2023-04-03T13:31:06.689Z,102741.13
2023-04-03T13:33:38.801Z,102744.44
2023-04-03T13:36:08.031Z,102743.66
2023-04-03T13:38:37.960Z,102747.25
2023-04-03T13:41:08.652Z,102733.25
2023-04-03T13:43:37.603Z,102726.28
2023-04-03T13:46:08.671Z,102729.28
2023-04-03T13:48:41.347Z,102729.50
2023-04-03T13:51:19.612Z,102730.91
2023-04-03T13:53:51.439Z,102723.09
2023-04-03T13:56:22.845Z,102734.00
2023-04-03T13:59:02.448Z,102721.84
2023-04-03T14:01:36.730Z,102715.66
2023-04-03T14:04:13.610Z,102722.19
2023-04-03T14:06:43.896Z,102721.72
2023-04-03T14:09:13.308Z,102719.69
2023-04-03T14:11:41.514Z,102725.88
2023-04-03T14:14:15.559Z,102713.41
2023-04-03T14:16:47.035Z,102714.16
2023-04-03T14:19:21.477Z,102702.56
2023-04-03T14:21:49.396Z,102705.16
2023-04-03T14:24:20.198Z,102705.44
2023-04-03T14:26:48.296Z,102709.00
2023-04-03T14:29:16.383Z,102709.94
2023-04-03T14:31:44.880Z,102719.91
2023-04-03T14:34:15.890Z,102715.06
2023-04-03T14:36:44.567Z,102711.31
2023-04-03T14:39:14.201Z,102702.69
2023-04-03T14:41:43.521Z,102704.06
2023-04-03T14:44:11.462Z,102708.91
2023-04-03T14:46:55.598Z,102693.59
2023-04-03T14:49:33.021Z,102692.81
2023-04-03T14:52:01.557Z,102703.28
2023-04-03T14:54:30.246Z,102694.84
2023-04-03T14:57:01.012Z,102681.03
2023-04-03T14:59:31.246Z,102658.97
2023-04-03T15:01:59.435Z,102660.28
2023-04-03T15:04:33.898Z,102679.31
2023-04-03T15:07:02.044Z,102675.59
2023-04-03T15:09:30.113Z,102677.03
2023-04-03T15:11:59.553Z,102666.59
2023-04-03T15:14:36.410Z,102669.44
2023-04-03T15:17:05.666Z,102667.94
2023-04-03T15:19:33.970Z,102662.72
2023-04-03T15:22:02.002Z,102669.56
2023-04-03T15:24:30.034Z,102656.38
2023-04-03T15:26:59.580Z,102663.66
2023-04-03T15:29:27.709Z,102665.31
2023-04-03T15:31:56.066Z,102664.84
2023-04-03T15:34:24.055Z,102678.63
2023-04-03T15:36:53.548Z,102660.81
2023-04-03T15:39:21.906Z,102660.53
2023-04-03T15:41:51.144Z,102658.88
2023-04-03T15:44:20.826Z,102663.69
2023-04-03T15:46:53.234Z,102658.44
2023-04-03T15:49:21.596Z,102660.31
2023-04-03T15:51:55.110Z,102651.56
2023-04-03T15:54:24.890Z,102652.97
2023-04-03T15:56:56.615Z,102652.09
2023-04-03T15:59:26.336Z,102658.34
2023-04-03T16:02:00.723Z,102649.25
2023-04-03T16:04:28.981Z,102661.94
2023-04-03T16:06:57.012Z,102657.38
2023-04-03T16:09:24.972Z,102646.59
2023-04-03T16:11:52.874Z,102647.06
2023-04-03T16:14:22.738Z,102645.03
2023-04-03T16:16:52.197Z,102645.56
2023-04-03T16:19:20.560Z,102645.97
2023-04-03T16:21:48.720Z,102648.34
2023-04-03T16:24:25.473Z,102650.59
2023-04-03T16:26:54.372Z,102639.81
2023-04-03T16:29:22.367Z,102645.25
2023-04-03T16:31:53.088Z,102643.91
2023-04-03T16:34:21.437Z,102625.81
2023-04-03T16:36:49.384Z,102642.44
2023-04-03T16:39:17.553Z,102635.03
2023-04-03T16:41:46.259Z,102639.50
2023-04-03T16:44:14.743Z,102638.44
2023-04-03T16:46:42.880Z,102634.22
2023-04-03T16:49:12.177Z,102623.50
2023-04-03T16:51:40.117Z,102632.09
2023-04-03T16:54:10.729Z,102627.25
2023-04-03T16:56:38.663Z,102618.47
2023-04-03T16:59:06.647Z,102622.09
2023-04-03T17:01:36.220Z,102622.28
2023-04-03T17:04:04.157Z,102616.06
2023-04-03T17:06:33.632Z,102624.47
2023-04-03T17:09:01.581Z,102619.91
2023-04-03T17:11:29.808Z,102630.31
2023-04-03T17:13:57.717Z,102634.34
2023-04-03T17:16:25.800Z,102636.28
2023-04-03T17:18:54.051Z,102636.50
2023-04-03T17:21:21.992Z,102632.28
2023-04-03T17:23:55.107Z,102642.09
2023-04-03T17:26:23.540Z,102635.25
2023-04-03T17:28:51.802Z,102647.66
2023-04-03T17:31:19.730Z,102630.28
2023-04-03T17:33:47.632Z,102632.41
2023-04-03T17:36:15.928Z,102632.88
2023-04-03T17:38:43.883Z,102632.81
2023-04-03T17:41:13.245Z,102628.66
2023-04-03T17:43:41.311Z,102622.25
2023-04-03T17:46:10.232Z,102638.91
2023-04-03T17:48:39.349Z,102637.38
2023-04-03T17:51:07.482Z,102643.34
2023-04-03T17:53:35.542Z,102648.84
2023-04-03T17:56:07.236Z,102642.97
2023-04-03T17:58:36.666Z,102644.09
2023-04-03T18:01:11.912Z,102648.59
2023-04-03T18:03:40.092Z,102646.66
2023-04-03T18:06:09.183Z,102648.88
2023-04-03T18:08:37.710Z,102636.78
2023-04-03T18:11:06.504Z,102629.69
2023-04-03T18:13:37.712Z,102646.13
2023-04-03T18:16:05.889Z,102646.84
2023-04-03T18:18:33.945Z,102649.19
2023-04-03T18:21:01.834Z,102649.63
2023-04-03T18:23:29.963Z,102652.72
2023-04-03T18:25:57.885Z,102642.44
2023-04-03T18:28:27.060Z,102651.69
2023-04-03T18:30:56.471Z,102644.22
2023-04-03T18:33:24.379Z,102652.56
2023-04-03T18:35:52.537Z,102655.59
2023-04-03T18:38:20.467Z,102658.63
2023-04-03T18:40:50.406Z,102652.69
2023-04-03T18:43:18.736Z,102655.56
2023-04-03T18:45:47.539Z,102663.75
2023-04-03T18:48:16.982Z,102654.13
2023-04-03T18:50:45.421Z,102658.81
2023-04-03T18:53:13.675Z,102659.84
2023-04-03T18:55:41.819Z,102652.00
2023-04-03T18:58:09.891Z,102652.13
2023-04-03T19:00:37.912Z,102662.03
2023-04-03T19:03:06.243Z,102656.84
2023-04-03T19:05:35.548Z,102663.16
2023-04-03T19:08:03.451Z,102658.03
2023-04-03T19:10:31.678Z,102658.25
2023-04-03T19:12:59.557Z,102664.69
2023-04-03T19:15:27.482Z,102663.13
2023-04-03T19:17:55.427Z,102667.78
2023-04-03T19:20:23.589Z,102667.13
2023-04-03T19:22:54.012Z,102670.06
2023-04-03T19:25:22.118Z,102657.13
2023-04-03T19:27:50.436Z,102670.47
2023-04-03T19:30:18.325Z,102680.47
2023-04-03T19:32:46.416Z,102677.09
2023-04-03T19:35:14.636Z,102674.59
2023-04-03T19:37:42.683Z,102688.03
2023-04-03T19:40:12.757Z,102690.84
2023-04-03T19:42:42.983Z,102679.50
2023-04-03T19:45:11.741Z,102682.25
2023-04-03T19:47:39.706Z,102682.34
2023-04-03T19:50:08.496Z,102689.56
2023-04-03T19:52:36.377Z,102692.22
2023-04-03T19:55:04.289Z,102704.69
2023-04-03T19:57:33.596Z,102708.22
2023-04-03T20:00:01.841Z,102710.84
2023-04-03T20:02:29.775Z,102716.22
2023-04-03T20:04:57.680Z,102714.50
2023-04-03T20:07:25.582Z,102711.94
2023-04-03T20:09:53.657Z,102661.91
2023-04-03T20:12:21.570Z,102707.75
2023-04-03T20:14:51.099Z,102719.25
2023-04-03T20:17:19.031Z,102714.94
2023-04-03T20:19:46.917Z,102708.88
2023-04-03T20:22:14.823Z,102709.91
2023-04-03T20:24:42.898Z,102720.75
2023-04-03T20:27:10.926Z,102716.44
2023-04-03T20:29:39.500Z,102721.88
2023-04-03T20:32:10.551Z,102719.28
2023-04-03T20:34:38.476Z,102719.31
2023-04-03T20:37:06.740Z,102721.97
2023-04-03T20:39:34.971Z,102718.44
2023-04-03T20:42:03.481Z,102720.22
2023-04-03T20:44:32.055Z,102724.69
2023-04-03T20:47:00.041Z,102734.47
2023-04-03T20:49:29.438Z,102735.38
2023-04-03T20:51:57.309Z,102736.34
2023-04-03T20:54:25.390Z,102727.53
2023-04-03T20:56:53.251Z,102727.63
2023-04-03T20:59:22.442Z,102729.44
2023-04-03T21:01:50.477Z,102733.88
2023-04-03T21:04:21.360Z,102734.78
2023-04-03T21:07:27.446Z,102734.88
2023-04-03T21:10:32.737Z,102734.03
2023-04-03T21:13:37.875Z,102734.06
2023-04-03T21:16:05.435Z,102723.50
2023-04-03T21:19:07.172Z,102723.50
2023-04-03T21:21:37.067Z,102721.75
2023-04-03T21:24:06.819Z,102735.91
2023-04-03T21:26:35.049Z,102737.72
2023-04-03T21:29:02.951Z,102734.22
2023-04-03T21:31:51.130Z,102732.47
2023-04-03T21:34:20.914Z,102737.78
2023-04-03T21:36:49.960Z,102733.38
2023-04-03T21:39:18.050Z,102742.22
2023-04-03T21:41:46.299Z,102731.63
2023-04-03T21:44:14.153Z,102728.06
2023-04-03T21:46:42.304Z,102731.63
2023-04-03T21:49:10.193Z,102728.94
2023-04-03T21:51:39.998Z,102712.22
2023-04-03T21:54:07.980Z,102728.97
2023-04-03T21:56:35.847Z,102730.78
2023-04-03T21:59:03.953Z,102721.09
2023-04-03T22:01:32.489Z,102728.19
2023-04-03T22:04:01.766Z,102723.75
2023-04-03T22:06:29.936Z,102726.41
2023-04-03T22:08:59.271Z,102727.31
2023-04-03T22:11:27.241Z,102723.78
2023-04-03T22:13:55.525Z,102721.13
2023-04-03T22:16:23.993Z,102722.91
2023-04-03T22:18:52.847Z,102719.41
2023-04-03T22:21:22.399Z,102715.88
2023-04-03T22:23:50.628Z,102718.53
2023-04-03T22:26:19.894Z,102708.81
2023-04-03T22:28:48.027Z,102720.31
2023-04-03T22:31:16.424Z,102715.84
2023-04-03T22:33:45.127Z,102722.94
2023-04-03T22:36:13.830Z,102715.88
2023-04-03T22:38:43.417Z,102717.66
2023-04-03T22:41:11.876Z,102713.28
2023-04-03T22:43:41.523Z,102722.09
2023-04-03T22:46:10.276Z,102723.88
2023-04-03T22:48:38.653Z,102721.22
2023-04-03T22:51:08.518Z,102719.47
2023-04-03T22:53:36.717Z,102716.81
2023-04-03T22:56:08.372Z,102723.00
2023-04-03T22:58:36.886Z,102713.31
2023-04-03T23:01:08.029Z,102714.22
2023-04-03T23:03:36.201Z,102718.63
2023-04-03T23:06:04.172Z,102715.13
2023-04-03T23:08:32.670Z,102715.13
2023-04-03T23:11:00.711Z,102708.91
2023-04-03T23:13:28.703Z,102713.34
2023-04-03T23:15:56.729Z,102713.34
2023-04-03T23:18:26.099Z,102709.81
2023-04-03T23:20:55.034Z,102716.00
2023-04-03T23:23:23.695Z,102715.16
2023-04-03T23:25:54.846Z,102716.91
2023-04-03T23:28:22.892Z,102725.75
2023-04-03T23:30:51.417Z,102725.75
2023-04-03T23:33:19.283Z,102729.28
2023-04-03T23:35:49.242Z,102730.13
2023-04-03T23:38:17.682Z,102738.97
2023-04-03T23:40:45.959Z,102736.34
2023-04-03T23:43:13.924Z,102730.19
2023-04-03T23:45:41.908Z,102729.28
2023-04-03T23:48:10.001Z,102734.56
2023-04-03T23:50:38.408Z,102737.25
2023-04-03T23:53:08.583Z,102742.56
2023-04-03T23:55:36.727Z,102742.53
2023-04-03T23:58:04.651Z,102746.97
